Terminal Aerodrome Forecast
Issued by NWS

Home | Current Version | Previous Version | Text Only | Print | Product List | Glossary On
Versions: 1 2 3 4 5 6 7 8 9 10 11 12 13 14 15 16 17 18 19 20 21 22 23 24 25 26 27
000
FTUS45 KBOI 202205 AAB
TAFJER
TAF AMD
KJER 202205Z 2022/2118 11007KT P6SM SKC
     FM210200 06007KT P6SM BKN200
     FM210600 05010KT P6SM -SHRA OVC100
     FM211500 24012G17KT P6SM VCSH SCT040 OVC060=

USA.gov is the U.S. government's official web portal to all federal, state and local government web resources and services.